Weather at Rybovich Heliport

Public forecast

Using degrees Fahrenheit for public forecast. Weather courtesy of forecast.io.

Closest aviation weather report (METAR) to Rybovich Heliport

Closest report is Palm Beach International Airport, 4.7 nm (8.7 km) SSW. Retrieved 2021/10/16 00:53 UTC (25 minutes ago):

KPBI 160053Z 03003KT 10SM FEW033 SCT070 28/21 A2993 RMK AO2 SLP134 T02780211

Closest aviation forecast (TAF) to Rybovich Heliport

Closest forecast is Palm Beach International Airport, 4.7 nm (8.7 km) SSW. Retrieved 2021-10-16 00:25 UTC (53 minutes ago):

TAF KPBI 152320Z 1600/1624 VRB03KT P6SM FEW035 SCT250 FM161500 32005KT P6SM FEW030 SCT250